createdAt,value
2023-09-28T00:00:33.355Z,81.02
2023-09-28T00:02:59.966Z,80.30
2023-09-28T00:05:26.508Z,80.76
2023-09-28T00:07:53.113Z,79.92
2023-09-28T00:10:19.655Z,78.73
2023-09-28T00:12:50.275Z,77.67
2023-09-28T00:15:17.269Z,78.38
2023-09-28T00:17:43.846Z,79.14
2023-09-28T00:20:17.743Z,81.87
2023-09-28T00:22:50.470Z,86.78
2023-09-28T00:25:17.720Z,83.53
2023-09-28T00:27:45.613Z,81.79
2023-09-28T00:30:21.508Z,84.84
2023-09-28T00:32:48.559Z,82.68
2023-09-28T00:37:59.994Z,82.52
2023-09-28T00:40:29.654Z,81.90
2023-09-28T00:42:56.776Z,82.79
2023-09-28T00:45:24.021Z,83.80
2023-09-28T00:47:56.233Z,83.40
2023-09-28T00:50:24.381Z,83.51
2023-09-28T00:52:54.313Z,82.19
2023-09-28T00:55:21.381Z,81.30
2023-09-28T00:57:48.771Z,80.08
2023-09-28T01:00:29.981Z,80.95
2023-09-28T01:02:58.712Z,83.92
2023-09-28T01:08:28.089Z,85.68
2023-09-28T01:10:54.798Z,83.90
2023-09-28T01:13:25.404Z,86.24
2023-09-28T01:15:51.992Z,86.08
2023-09-28T01:18:19.716Z,85.13
2023-09-28T01:20:46.970Z,86.40
2023-09-28T01:23:13.736Z,86.41
2023-09-28T01:25:40.860Z,85.76
2023-09-28T01:28:07.905Z,86.60
2023-09-28T01:30:35.002Z,86.64
2023-09-28T01:33:01.991Z,87.64
2023-09-28T01:35:29.038Z,87.38
2023-09-28T01:38:16.014Z,88.39
2023-09-28T01:40:43.128Z,87.60
2023-09-28T01:43:09.728Z,87.03
2023-09-28T01:45:36.242Z,87.43
2023-09-28T01:48:05.299Z,86.94
2023-09-28T01:50:32.497Z,84.70
2023-09-28T01:52:59.555Z,85.84
2023-09-28T01:55:26.086Z,87.27
2023-09-28T01:57:52.749Z,86.46
2023-09-28T02:00:23.668Z,87.10
2023-09-28T02:02:51.860Z,87.77
2023-09-28T02:05:19.147Z,86.61
2023-09-28T02:07:46.401Z,83.00
2023-09-28T02:10:13.345Z,82.21
2023-09-28T02:12:40.759Z,81.84
2023-09-28T02:17:53.795Z,77.93
2023-09-28T02:20:23.912Z,77.89
2023-09-28T02:22:53.775Z,77.32
2023-09-28T02:25:22.105Z,76.52
2023-09-28T02:27:49.496Z,74.71
2023-09-28T02:30:18.944Z,75.09
2023-09-28T02:32:46.226Z,75.13
2023-09-28T02:35:15.403Z,73.84
2023-09-28T02:37:42.934Z,74.19
2023-09-28T02:40:10.819Z,74.11
2023-09-28T02:42:37.354Z,74.49
2023-09-28T02:45:12.857Z,74.33
2023-09-28T02:47:43.655Z,74.36
2023-09-28T02:50:14.638Z,74.52
2023-09-28T02:52:42.404Z,74.86
2023-09-28T02:57:53.445Z,73.50
2023-09-28T03:00:19.920Z,72.84
2023-09-28T03:02:46.658Z,73.77
2023-09-28T03:05:13.317Z,73.70
2023-09-28T03:07:42.560Z,73.11
2023-09-28T03:12:55.435Z,72.19
2023-09-28T03:15:22.022Z,72.00
2023-09-28T03:17:48.736Z,72.35
2023-09-28T03:23:03.495Z,73.49
2023-09-28T03:25:30.146Z,74.08
2023-09-28T03:27:56.634Z,72.94
2023-09-28T03:30:24.168Z,71.93
2023-09-28T03:32:51.748Z,71.15
2023-09-28T03:38:03.767Z,71.93
2023-09-28T03:40:34.781Z,71.96
2023-09-28T03:45:48.452Z,72.09
2023-09-28T03:48:15.015Z,71.47
2023-09-28T03:50:41.482Z,72.83
2023-09-28T03:53:07.948Z,71.97
2023-09-28T03:55:34.565Z,71.29
2023-09-28T03:58:01.938Z,72.34
2023-09-28T04:00:28.797Z,71.79
2023-09-28T04:02:56.294Z,71.24
2023-09-28T04:08:08.690Z,72.45
2023-09-28T04:10:35.175Z,72.52
2023-09-28T04:15:49.791Z,70.17
2023-09-28T04:18:16.428Z,70.10
2023-09-28T04:20:42.901Z,72.86
2023-09-28T04:23:09.909Z,71.44
2023-09-28T04:25:37.000Z,71.01
2023-09-28T04:28:04.515Z,71.65
2023-09-28T04:30:31.051Z,70.84
2023-09-28T04:32:58.318Z,71.56
2023-09-28T04:35:24.909Z,70.96
2023-09-28T04:37:51.465Z,71.24
2023-09-28T04:40:18.030Z,71.62
2023-09-28T04:42:44.578Z,70.92
2023-09-28T04:45:11.484Z,72.76
2023-09-28T04:47:38.211Z,72.40
2023-09-28T04:50:05.724Z,71.52
2023-09-28T04:52:32.335Z,70.88
2023-09-28T04:54:59.056Z,70.23
2023-09-28T04:57:26.724Z,70.05
2023-09-28T04:59:53.697Z,70.07
2023-09-28T05:02:20.393Z,70.64
2023-09-28T05:04:46.959Z,68.51
2023-09-28T05:07:13.917Z,68.47
2023-09-28T05:09:40.493Z,70.02
2023-09-28T05:12:07.740Z,69.45
2023-09-28T05:14:34.410Z,68.32
2023-09-28T05:17:01.465Z,68.58
2023-09-28T05:19:28.241Z,68.01
2023-09-28T05:21:54.871Z,73.49
2023-09-28T05:24:21.474Z,75.15
2023-09-28T05:26:47.943Z,73.47
2023-09-28T05:29:14.545Z,77.79
2023-09-28T05:31:41.821Z,79.88
2023-09-28T05:34:08.986Z,80.07
2023-09-28T05:36:36.289Z,82.85
2023-09-28T05:39:04.301Z,82.46
2023-09-28T05:41:31.492Z,82.59
2023-09-28T05:43:58.056Z,81.50
2023-09-28T05:46:24.613Z,81.02
2023-09-28T05:48:51.719Z,81.19
2023-09-28T05:51:18.766Z,81.31
2023-09-28T05:53:46.266Z,82.11
2023-09-28T05:56:15.316Z,80.19
2023-09-28T05:58:41.825Z,78.95
2023-09-28T06:01:08.820Z,77.25
2023-09-28T06:03:36.826Z,76.24
2023-09-28T06:06:32.779Z,74.82
2023-09-28T06:08:59.334Z,72.07
2023-09-28T06:11:26.353Z,70.53
2023-09-28T06:14:06.891Z,69.71
2023-09-28T06:16:38.231Z,68.02
2023-09-28T06:19:05.060Z,64.72
2023-09-28T06:21:31.601Z,61.27
2023-09-28T06:23:58.751Z,59.68
2023-09-28T06:26:35.326Z,59.09
2023-09-28T06:29:08.587Z,53.22
2023-09-28T06:31:35.323Z,56.94
2023-09-28T06:34:02.445Z,53.73
2023-09-28T06:38:58.759Z,49.64
2023-09-28T06:44:11.036Z,48.71
2023-09-28T06:46:38.161Z,48.56
2023-09-28T06:49:07.266Z,46.79
2023-09-28T06:51:33.889Z,47.04
2023-09-28T06:54:00.549Z,43.80
2023-09-28T06:56:28.133Z,45.22
2023-09-28T06:58:55.168Z,45.95
2023-09-28T07:01:22.332Z,45.74
2023-09-28T07:03:54.018Z,46.37
2023-09-28T07:06:22.622Z,45.84
2023-09-28T07:08:50.242Z,44.85
2023-09-28T07:11:16.774Z,44.62
2023-09-28T07:13:43.336Z,44.11
2023-09-28T07:16:09.914Z,43.33
2023-09-28T07:21:21.513Z,43.30
2023-09-28T07:23:48.155Z,42.35
2023-09-28T07:29:01.409Z,43.94
2023-09-28T07:31:28.710Z,43.53
2023-09-28T07:33:55.438Z,43.31
2023-09-28T07:36:22.034Z,42.54
2023-09-28T07:38:48.647Z,42.72
2023-09-28T07:41:15.270Z,41.98
2023-09-28T07:43:41.712Z,42.43
2023-09-28T07:46:08.788Z,41.82
2023-09-28T07:48:36.066Z,41.09
2023-09-28T07:51:02.615Z,42.93
2023-09-28T07:53:29.494Z,42.17
2023-09-28T07:55:56.181Z,41.99
2023-09-28T07:58:26.723Z,41.55
2023-09-28T08:00:54.831Z,40.32
2023-09-28T08:03:21.643Z,41.88
2023-09-28T08:05:48.278Z,40.50
2023-09-28T08:08:17.851Z,40.82
2023-09-28T08:10:44.987Z,41.32
2023-09-28T08:13:14.500Z,40.67
2023-09-28T08:15:42.196Z,41.04
2023-09-28T08:18:09.613Z,40.99
2023-09-28T08:20:36.690Z,40.58
2023-09-28T08:23:05.856Z,38.84
2023-09-28T08:25:32.783Z,38.77
2023-09-28T08:28:00.242Z,37.43
2023-09-28T08:30:26.744Z,39.45
2023-09-28T08:32:54.954Z,37.04
2023-09-28T08:38:06.047Z,38.03
2023-09-28T08:40:33.221Z,38.43
2023-09-28T08:43:00.769Z,37.35
2023-09-28T08:45:28.202Z,38.02
2023-09-28T08:47:55.940Z,36.66
2023-09-28T08:50:29.416Z,35.63
2023-09-28T08:52:56.938Z,37.54
2023-09-28T08:55:24.919Z,36.21
2023-09-28T08:57:51.995Z,33.60
2023-09-28T09:00:24.257Z,34.92
2023-09-28T09:02:52.991Z,33.74
2023-09-28T09:05:20.130Z,32.72
2023-09-28T09:07:46.846Z,34.06
2023-09-28T09:10:14.349Z,33.95
2023-09-28T09:12:40.875Z,34.34
2023-09-28T09:15:07.714Z,33.42
2023-09-28T09:17:34.726Z,33.21
2023-09-28T09:20:02.840Z,33.31
2023-09-28T09:22:35.014Z,32.46
2023-09-28T09:25:08.647Z,31.17
2023-09-28T09:27:35.193Z,31.39
2023-09-28T09:30:09.447Z,31.71
2023-09-28T09:32:36.586Z,34.88
2023-09-28T09:35:05.693Z,34.87
2023-09-28T09:40:17.463Z,37.59
2023-09-28T09:42:44.095Z,38.32
2023-09-28T09:45:12.924Z,34.37
2023-09-28T09:47:48.961Z,35.21
2023-09-28T09:50:16.005Z,38.19
2023-09-28T09:52:44.004Z,38.22
2023-09-28T09:55:10.722Z,35.62
2023-09-28T09:57:38.762Z,35.63
2023-09-28T10:00:08.337Z,40.26
2023-09-28T10:02:37.577Z,37.50
2023-09-28T10:05:05.627Z,35.72
2023-09-28T10:07:47.407Z,36.81
2023-09-28T10:10:15.353Z,35.53
2023-09-28T10:15:27.270Z,35.64
2023-09-28T10:17:54.833Z,36.41
2023-09-28T10:20:21.669Z,38.77
2023-09-28T10:22:48.982Z,39.56
2023-09-28T10:25:19.324Z,38.50
2023-09-28T10:27:48.640Z,37.73
2023-09-28T10:30:22.441Z,39.04
2023-09-28T10:32:53.193Z,37.42
2023-09-28T10:35:28.078Z,34.74
2023-09-28T10:38:17.127Z,37.77
2023-09-28T10:43:46.341Z,35.65
2023-09-28T10:48:58.822Z,39.91
2023-09-28T10:51:25.726Z,38.46
2023-09-28T10:53:52.291Z,35.80
2023-09-28T10:59:06.276Z,37.71
2023-09-28T11:01:33.059Z,40.51
2023-09-28T11:04:00.640Z,40.65
2023-09-28T11:06:28.595Z,39.93
2023-09-28T11:08:58.422Z,38.61
2023-09-28T11:11:26.182Z,38.95
2023-09-28T11:13:52.793Z,38.08
2023-09-28T11:16:19.490Z,38.25
2023-09-28T11:18:46.113Z,38.20
2023-09-28T11:21:13.337Z,38.26
2023-09-28T11:23:41.268Z,38.93
2023-09-28T11:26:14.450Z,38.68
2023-09-28T11:28:41.031Z,40.26
2023-09-28T11:31:11.357Z,39.95
2023-09-28T11:33:38.630Z,39.68
2023-09-28T11:36:05.946Z,40.98
2023-09-28T11:38:32.802Z,40.38
2023-09-28T11:40:59.629Z,38.48
2023-09-28T11:43:27.101Z,38.29
2023-09-28T11:45:53.629Z,39.39
2023-09-28T11:51:10.083Z,36.27
2023-09-28T11:53:39.564Z,38.19
2023-09-28T11:56:06.243Z,38.86
2023-09-28T11:58:35.479Z,36.53
2023-09-28T12:01:02.209Z,38.79
2023-09-28T12:03:29.107Z,35.29
2023-09-28T12:05:55.966Z,38.72
2023-09-28T12:08:22.939Z,36.27
2023-09-28T12:10:49.540Z,36.58
2023-09-28T12:13:16.072Z,39.69
2023-09-28T12:15:42.566Z,37.32
2023-09-28T12:18:09.850Z,40.48
2023-09-28T12:20:36.574Z,40.15
2023-09-28T12:23:04.472Z,38.82
2023-09-28T12:25:34.546Z,39.28
2023-09-28T12:28:01.295Z,39.06
2023-09-28T12:30:27.862Z,39.12
2023-09-28T12:32:55.081Z,39.11
2023-09-28T12:38:06.721Z,40.57
2023-09-28T12:40:34.051Z,40.66
2023-09-28T12:43:02.394Z,40.25
2023-09-28T12:45:31.963Z,39.56
2023-09-28T12:53:27.459Z,41.78
2023-09-28T12:55:55.099Z,40.89
2023-09-28T12:58:22.054Z,40.73
2023-09-28T13:00:55.796Z,41.91
2023-09-28T13:03:22.888Z,40.46
2023-09-28T13:05:49.646Z,39.88
2023-09-28T13:08:16.948Z,38.10
2023-09-28T13:10:44.167Z,36.99
2023-09-28T13:13:10.843Z,39.25
2023-09-28T13:15:37.457Z,38.35
2023-09-28T13:18:09.842Z,36.88
2023-09-28T13:20:43.568Z,40.36
2023-09-28T13:23:11.260Z,40.33
2023-09-28T13:25:39.443Z,37.32
2023-09-28T13:28:09.968Z,38.28
2023-09-28T13:30:40.180Z,38.21
2023-09-28T13:33:08.126Z,38.75
2023-09-28T13:35:34.922Z,36.96
2023-09-28T13:38:03.387Z,36.85
2023-09-28T13:40:34.186Z,36.99
2023-09-28T13:43:01.316Z,39.92
2023-09-28T13:45:28.226Z,35.89
2023-09-28T13:47:55.223Z,36.27
2023-09-28T13:50:22.601Z,36.21
2023-09-28T13:52:51.069Z,38.62
2023-09-28T13:55:18.005Z,39.27
2023-09-28T13:57:48.900Z,37.74
2023-09-28T14:00:23.704Z,39.44
2023-09-28T14:02:50.472Z,37.90
2023-09-28T14:05:17.960Z,37.91
2023-09-28T14:07:45.532Z,37.58
2023-09-28T14:10:12.248Z,38.58
2023-09-28T14:12:39.363Z,39.64
2023-09-28T14:15:07.862Z,38.59
2023-09-28T14:17:39.296Z,38.34
2023-09-28T14:20:07.961Z,38.59
2023-09-28T14:22:34.867Z,41.81
2023-09-28T14:25:02.000Z,42.22
2023-09-28T14:27:29.324Z,39.94
2023-09-28T14:29:55.848Z,38.94
2023-09-28T14:32:22.408Z,39.79
2023-09-28T14:34:48.974Z,38.40
2023-09-28T14:37:15.497Z,40.27
2023-09-28T14:39:41.968Z,38.17
2023-09-28T14:42:08.647Z,38.49
2023-09-28T14:44:35.950Z,39.18
2023-09-28T14:47:02.475Z,40.00
2023-09-28T14:49:28.901Z,41.06
2023-09-28T14:51:55.417Z,40.29
2023-09-28T14:54:22.352Z,42.43
2023-09-28T14:56:50.248Z,41.33
2023-09-28T14:59:16.937Z,41.35
2023-09-28T15:01:43.469Z,42.14
2023-09-28T15:04:10.179Z,43.70
2023-09-28T15:06:36.959Z,41.17
2023-09-28T15:09:04.023Z,40.67
2023-09-28T15:11:30.631Z,41.67
2023-09-28T15:13:57.485Z,42.13
2023-09-28T15:16:24.578Z,43.09
2023-09-28T15:18:51.130Z,43.10
2023-09-28T15:21:17.687Z,42.77
2023-09-28T15:23:44.222Z,40.02
2023-09-28T15:26:10.890Z,41.65
2023-09-28T15:28:38.382Z,41.71
2023-09-28T15:31:04.950Z,43.28
2023-09-28T15:33:31.554Z,43.67
2023-09-28T15:35:59.557Z,45.48
2023-09-28T15:38:26.428Z,45.24
2023-09-28T15:40:53.195Z,44.33
2023-09-28T15:43:19.749Z,44.91
2023-09-28T15:45:47.430Z,44.40
2023-09-28T15:48:14.013Z,44.64
2023-09-28T15:50:41.681Z,45.07
2023-09-28T15:53:08.916Z,46.38
2023-09-28T15:55:35.475Z,45.55
2023-09-28T15:58:02.451Z,46.28
2023-09-28T16:00:36.570Z,46.55
2023-09-28T16:03:04.949Z,47.66
2023-09-28T16:05:31.677Z,46.71
2023-09-28T16:08:00.211Z,47.55
2023-09-28T16:10:27.046Z,46.94
2023-09-28T16:12:54.237Z,48.05
2023-09-28T16:15:20.982Z,47.64
2023-09-28T16:17:47.701Z,49.07
2023-09-28T16:20:14.515Z,48.37
2023-09-28T16:22:41.187Z,48.46
2023-09-28T16:25:07.989Z,49.07
2023-09-28T16:27:34.587Z,47.81
2023-09-28T16:30:01.125Z,48.70
2023-09-28T16:32:27.708Z,48.08
2023-09-28T16:34:54.393Z,48.28
2023-09-28T16:37:20.941Z,48.79
2023-09-28T16:39:47.544Z,49.48
2023-09-28T16:42:14.065Z,49.92
2023-09-28T16:44:40.668Z,49.40
2023-09-28T16:47:07.255Z,48.87
2023-09-28T16:49:33.736Z,49.25
2023-09-28T16:52:00.377Z,49.40
2023-09-28T16:54:27.037Z,49.25
2023-09-28T16:56:53.839Z,49.71
2023-09-28T16:59:20.432Z,50.21
2023-09-28T17:01:47.012Z,50.41
2023-09-28T17:04:13.916Z,49.54
2023-09-28T17:06:41.785Z,50.56
2023-09-28T17:09:08.312Z,50.21
2023-09-28T17:11:34.874Z,49.66
2023-09-28T17:14:01.512Z,50.40
2023-09-28T17:16:30.621Z,50.52
2023-09-28T17:18:58.900Z,50.32
2023-09-28T17:21:25.694Z,50.25
2023-09-28T17:23:52.449Z,50.41
2023-09-28T17:26:19.031Z,50.22
2023-09-28T17:28:45.791Z,51.20
2023-09-28T17:31:13.330Z,50.78
2023-09-28T17:33:39.864Z,50.43
2023-09-28T17:36:06.476Z,50.84
2023-09-28T17:38:33.046Z,50.77
2023-09-28T17:41:00.319Z,50.81
2023-09-28T17:43:26.909Z,50.03
2023-09-28T17:45:53.754Z,50.89
2023-09-28T17:48:20.308Z,50.60
2023-09-28T17:50:47.034Z,50.35
2023-09-28T17:53:13.579Z,49.55
2023-09-28T17:55:40.456Z,51.16
2023-09-28T17:58:06.990Z,49.43
2023-09-28T18:00:33.527Z,50.92
2023-09-28T18:03:02.368Z,50.05
2023-09-28T18:05:31.465Z,50.63
2023-09-28T18:07:58.444Z,49.65
2023-09-28T18:10:25.034Z,49.63
2023-09-28T18:12:51.675Z,50.14
2023-09-28T18:15:20.809Z,49.97
2023-09-28T18:17:47.585Z,49.88
2023-09-28T18:20:14.149Z,49.91
2023-09-28T18:22:40.855Z,50.59
2023-09-28T18:25:10.330Z,50.72
2023-09-28T18:27:37.141Z,50.43
2023-09-28T18:30:09.570Z,50.80
2023-09-28T18:32:39.665Z,50.47
2023-09-28T18:35:07.889Z,50.29
2023-09-28T18:37:34.681Z,51.58
2023-09-28T18:40:01.470Z,50.10
2023-09-28T18:42:31.012Z,50.62
2023-09-28T18:44:57.489Z,51.01
2023-09-28T18:47:24.630Z,51.16
2023-09-28T18:49:51.900Z,51.09
2023-09-28T18:52:18.523Z,50.92
2023-09-28T18:54:45.124Z,50.55
2023-09-28T18:57:11.638Z,51.09
2023-09-28T18:59:38.187Z,50.90
2023-09-28T19:02:04.949Z,51.07
2023-09-28T19:04:34.512Z,51.26
2023-09-28T19:07:02.340Z,50.50
2023-09-28T19:09:29.103Z,50.61
2023-09-28T19:11:55.624Z,50.78
2023-09-28T19:14:22.398Z,51.11
2023-09-28T19:16:51.349Z,50.13
2023-09-28T19:19:19.609Z,51.38
2023-09-28T19:21:46.293Z,56.14
2023-09-28T19:24:13.065Z,59.41
2023-09-28T19:26:39.847Z,56.46
2023-09-28T19:29:09.701Z,53.21
2023-09-28T19:31:37.031Z,57.46
2023-09-28T19:34:08.042Z,55.34
2023-09-28T19:36:36.431Z,57.61
2023-09-28T19:39:04.471Z,56.36
2023-09-28T19:41:34.257Z,56.63
2023-09-28T19:44:01.061Z,56.47
2023-09-28T19:46:27.703Z,58.41
2023-09-28T19:48:54.383Z,56.18
2023-09-28T19:51:24.212Z,56.55
2023-09-28T19:53:51.156Z,55.81
2023-09-28T19:56:24.871Z,56.46
2023-09-28T19:58:51.807Z,56.08
2023-09-28T20:01:18.477Z,55.11
2023-09-28T20:03:45.132Z,56.90
2023-09-28T20:06:11.690Z,56.38
2023-09-28T20:08:38.199Z,55.25
2023-09-28T20:11:04.896Z,55.87
2023-09-28T20:13:31.425Z,56.07
2023-09-28T20:15:58.189Z,55.80
2023-09-28T20:18:24.912Z,55.79
2023-09-28T20:20:51.544Z,55.70
2023-09-28T20:23:18.402Z,55.80
2023-09-28T20:25:44.944Z,55.61
2023-09-28T20:28:11.419Z,56.00
2023-09-28T20:30:38.167Z,55.77
2023-09-28T20:33:04.910Z,55.89
2023-09-28T20:35:31.414Z,55.74
2023-09-28T20:37:58.179Z,55.30
2023-09-28T20:40:24.664Z,54.62
2023-09-28T20:42:51.429Z,55.63
2023-09-28T20:45:18.694Z,54.84
2023-09-28T20:47:45.420Z,54.93
2023-09-28T20:50:13.381Z,56.26
2023-09-28T20:52:40.106Z,55.74
2023-09-28T20:55:06.996Z,56.35
2023-09-28T20:57:33.919Z,54.88
2023-09-28T21:00:06.461Z,54.68
2023-09-28T21:02:33.452Z,55.01
2023-09-28T21:05:00.048Z,54.57
2023-09-28T21:07:26.501Z,55.71
2023-09-28T21:09:53.136Z,55.08
2023-09-28T21:12:19.638Z,55.00
2023-09-28T21:14:46.742Z,55.58
2023-09-28T21:17:13.276Z,55.18
2023-09-28T21:19:40.185Z,54.98
2023-09-28T21:22:07.155Z,55.64
2023-09-28T21:24:33.760Z,54.90
2023-09-28T21:27:01.165Z,55.32
2023-09-28T21:29:27.757Z,55.77
2023-09-28T21:31:54.450Z,57.54
2023-09-28T21:34:21.258Z,56.30
2023-09-28T21:36:48.310Z,58.64
2023-09-28T21:39:14.853Z,58.40
2023-09-28T21:41:41.363Z,57.63
2023-09-28T21:44:07.939Z,57.97
2023-09-28T21:46:34.479Z,57.15
2023-09-28T21:49:00.909Z,57.42
2023-09-28T21:51:27.981Z,57.82
2023-09-28T21:53:54.529Z,58.66
2023-09-28T21:56:21.066Z,58.78
2023-09-28T21:58:47.619Z,59.28
2023-09-28T22:11:38.024Z,60.83
2023-09-28T22:14:04.650Z,60.79
2023-09-28T22:16:31.242Z,62.54
2023-09-28T22:18:57.859Z,61.68
2023-09-28T22:21:24.409Z,63.09
2023-09-28T22:23:51.012Z,63.54
2023-09-28T22:26:17.647Z,63.43
2023-09-28T22:28:44.249Z,65.19
2023-09-28T22:31:11.207Z,67.44
2023-09-28T22:33:37.778Z,66.91
2023-09-28T22:36:04.468Z,66.54
2023-09-28T22:38:30.963Z,65.79
2023-09-28T22:40:59.783Z,66.55
2023-09-28T22:43:26.328Z,68.26
2023-09-28T22:45:52.804Z,66.28
2023-09-28T22:48:20.002Z,68.44
2023-09-28T22:50:46.780Z,67.64
2023-09-28T22:53:13.659Z,69.22
2023-09-28T22:55:40.200Z,67.33
2023-09-28T22:58:07.771Z,67.42
2023-09-28T23:00:34.519Z,65.75
2023-09-28T23:03:01.753Z,66.44
2023-09-28T23:05:28.316Z,66.41
2023-09-28T23:07:54.783Z,67.39
2023-09-28T23:10:21.282Z,65.81
2023-09-28T23:12:48.892Z,66.58
2023-09-28T23:15:15.643Z,65.61
2023-09-28T23:17:42.675Z,67.16
2023-09-28T23:20:11.739Z,66.37
2023-09-28T23:22:42.601Z,65.71
2023-09-28T23:25:13.602Z,66.96
2023-09-28T23:27:43.291Z,67.96
2023-09-28T23:30:13.430Z,67.23
2023-09-28T23:32:40.562Z,68.01
2023-09-28T23:35:10.645Z,67.85
2023-09-28T23:37:37.963Z,69.25
2023-09-28T23:40:08.736Z,68.73
2023-09-28T23:42:35.284Z,69.35
2023-09-28T23:45:01.798Z,69.84
2023-09-28T23:47:28.652Z,68.49
2023-09-28T23:49:55.140Z,69.91
2023-09-28T23:52:22.130Z,67.89
2023-09-28T23:54:49.214Z,69.29
2023-09-28T23:57:15.718Z,69.70
2023-09-28T23:59:42.521Z,68.43
